Aeroporto :
LOGIN :

Iscrizione | Disclaimer

   EN    FR    IT 

 










Sommario :    VFR   VFR Marginale   IFR   IFR Intensivo   IFR Molto Intensivo
Visibilità : 
Base nubi : 
>= 8 km
>= 3000ft
5 / 8 km
1000 / 3000 ft
1500m / 5 km
500 / 1000 ft
800 / 1500m
200 / 500 ft
< 800m
< 200 ft
Simboli :   Temporali  Nebbia  Neve Forte  Precipitazioni Forti  Vento > 20 kt
SIGMETs :   Varie  Temporali  Ghiacco  Turbolenza  Onda orograficha  Ceneri Vulcaniche







- Altitudine del aeroporto : 7 ft
- Codice IATA : VCE


LIPZ - Marco Polo Int. Venezia

ULTIMO METAR :
  • 230950Z 17005KT 120V220 CAVOK 26/19 Q1011 NOSIG

METARs OBSOLETI :
  • 230920Z 15006KT CAVOK 26/20 Q1011 NOSIG
  • 230850Z 30004KT 240V360 CAVOK 26/19 Q1011 NOSIG
  • 230820Z VRB02KT CAVOK 26/19 Q1010 NOSIG
  • 230750Z 26003KT 210V340 CAVOK 24/19 Q1010 NOSIG
  • 230720Z 32003KT 260V040 CAVOK 24/19 Q1011 NOSIG
  • 230650Z 32003KT 260V030 CAVOK 23/19 Q1010 NOSIG

TAF TAF LIPZ
Valido dal 23 a 06 ore il 24 a 12 ore UTC


230500Z 2306/2412 02010KT 9999 SCT030
BECMG 2310/2312 VRB05KT
BECMG 2318/2320 03010KT
Nessun NOTAM noto per questo aeroporto.



MetMap, La meteo Aeronautica in un colpo d'occhio ! - Copyright ORBIFLY Dicembre 2007 - Disclaimer

ORBIFLY MET'MAP TEAM :

Programmazione e sviluppo : Alexandra Zaïnal
Concezione e sviluppo : Baudouin d'Aumeries
Co-Programmazione e sviluppo : Marc-Olivier Méhu
Supporto tecnico e logistico : Manuel Goepfert
Aiuto per la traduzione : Arnaldo La Scala

Contatto : metmap@orbifly.com




FONTI E CREDITI :

   NOAA